sensor_id;sensor_type;location;lat;lon;timestamp;pressure;altitude;pressure_sealevel;temperature;humidity
11621;BME280;5866;49.094;11.900;2023-02-20T00:00:29;97129.16;;;7.14;100.00
11621;BME280;5866;49.094;11.900;2023-02-20T00:02:58;97120.06;;;7.41;100.00
11621;BME280;5866;49.094;11.900;2023-02-20T00:05:26;97129.91;;;7.28;100.00
11621;BME280;5866;49.094;11.900;2023-02-20T00:07:53;97130.38;;;7.21;100.00
11621;BME280;5866;49.094;11.900;2023-02-20T00:10:21;97128.94;;;7.17;100.00
11621;BME280;5866;49.094;11.900;2023-02-20T00:12:49;97128.34;;;7.25;100.00
11621;BME280;5866;49.094;11.900;2023-02-20T00:15:18;97128.84;;;7.30;100.00
11621;BME280;5866;49.094;11.900;2023-02-20T00:17:46;97124.38;;;7.64;100.00
11621;BME280;5866;49.094;11.900;2023-02-20T00:20:17;97130.16;;;7.25;100.00
11621;BME280;5866;49.094;11.900;2023-02-20T00:22:46;97125.09;;;7.21;100.00
11621;BME280;5866;49.094;11.900;2023-02-20T00:25:14;97117.56;;;7.39;100.00
11621;BME280;5866;49.094;11.900;2023-02-20T00:27:42;97120.78;;;7.54;100.00
11621;BME280;5866;49.094;11.900;2023-02-20T00:30:14;97123.56;;;7.30;100.00
11621;BME280;5866;49.094;11.900;2023-02-20T00:32:41;97129.69;;;7.31;100.00
11621;BME280;5866;49.094;11.900;2023-02-20T00:35:10;97119.03;;;7.86;100.00
11621;BME280;5866;49.094;11.900;2023-02-20T00:37:39;97118.59;;;7.81;100.00
11621;BME280;5866;49.094;11.900;2023-02-20T00:40:07;97105.50;;;8.11;100.00
11621;BME280;5866;49.094;11.900;2023-02-20T00:42:35;97103.16;;;7.97;100.00
11621;BME280;5866;49.094;11.900;2023-02-20T00:45:02;97103.94;;;8.93;100.00
11621;BME280;5866;49.094;11.900;2023-02-20T00:47:30;97106.25;;;8.86;100.00
11621;BME280;5866;49.094;11.900;2023-02-20T00:49:57;97106.03;;;8.68;100.00
11621;BME280;5866;49.094;11.900;2023-02-20T00:52:25;97104.03;;;8.82;100.00
11621;BME280;5866;49.094;11.900;2023-02-20T00:54:54;97113.38;;;8.01;100.00
11621;BME280;5866;49.094;11.900;2023-02-20T00:57:21;97115.38;;;8.09;100.00
11621;BME280;5866;49.094;11.900;2023-02-20T00:59:49;97109.22;;;8.51;100.00
11621;BME280;5866;49.094;11.900;2023-02-20T01:02:16;97108.53;;;8.49;100.00
11621;BME280;5866;49.094;11.900;2023-02-20T01:04:44;97105.69;;;8.41;100.00
11621;BME280;5866;49.094;11.900;2023-02-20T01:07:11;97114.75;;;8.17;100.00
11621;BME280;5866;49.094;11.900;2023-02-20T01:09:39;97103.34;;;8.27;100.00
11621;BME280;5866;49.094;11.900;2023-02-20T01:12:08;97101.81;;;8.45;100.00
11621;BME280;5866;49.094;11.900;2023-02-20T01:14:36;97099.47;;;8.31;100.00
11621;BME280;5866;49.094;11.900;2023-02-20T01:17:03;97096.53;;;8.66;100.00
11621;BME280;5866;49.094;11.900;2023-02-20T01:19:31;97093.84;;;8.56;100.00
11621;BME280;5866;49.094;11.900;2023-02-20T01:21:59;97093.22;;;8.53;100.00
11621;BME280;5866;49.094;11.900;2023-02-20T01:24:28;97089.34;;;7.62;100.00
11621;BME280;5866;49.094;11.900;2023-02-20T01:26:55;97091.84;;;7.63;100.00
11621;BME280;5866;49.094;11.900;2023-02-20T01:29:24;97099.53;;;8.09;100.00
11621;BME280;5866;49.094;11.900;2023-02-20T01:31:51;97091.78;;;7.85;100.00
11621;BME280;5866;49.094;11.900;2023-02-20T01:34:20;97097.69;;;7.78;100.00
11621;BME280;5866;49.094;11.900;2023-02-20T01:36:51;97098.06;;;7.73;100.00
11621;BME280;5866;49.094;11.900;2023-02-20T01:39:21;97099.84;;;7.84;100.00
11621;BME280;5866;49.094;11.900;2023-02-20T01:41:51;97111.44;;;7.39;100.00
11621;BME280;5866;49.094;11.900;2023-02-20T01:44:22;97123.66;;;7.62;100.00
11621;BME280;5866;49.094;11.900;2023-02-20T01:46:53;97122.22;;;7.58;100.00
11621;BME280;5866;49.094;11.900;2023-02-20T01:49:26;97119.81;;;7.55;100.00
11621;BME280;5866;49.094;11.900;2023-02-20T01:51:58;97114.53;;;7.44;100.00
11621;BME280;5866;49.094;11.900;2023-02-20T01:54:27;97105.22;;;7.29;100.00
11621;BME280;5866;49.094;11.900;2023-02-20T01:56:58;97095.84;;;7.36;100.00
11621;BME280;5866;49.094;11.900;2023-02-20T01:59:29;97104.38;;;7.39;100.00
11621;BME280;5866;49.094;11.900;2023-02-20T02:01:59;97093.84;;;7.71;100.00
11621;BME280;5866;49.094;11.900;2023-02-20T02:04:28;97094.41;;;7.54;100.00
11621;BME280;5866;49.094;11.900;2023-02-20T02:06:56;97093.19;;;7.47;100.00
11621;BME280;5866;49.094;11.900;2023-02-20T02:09:31;97093.69;;;7.30;100.00
11621;BME280;5866;49.094;11.900;2023-02-20T02:12:00;97088.41;;;7.18;100.00
11621;BME280;5866;49.094;11.900;2023-02-20T02:14:27;97086.25;;;7.12;100.00
11621;BME280;5866;49.094;11.900;2023-02-20T02:17:09;97093.69;;;7.52;100.00
11621;BME280;5866;49.094;11.900;2023-02-20T02:20:02;97101.47;;;7.42;100.00
11621;BME280;5866;49.094;11.900;2023-02-20T02:25:59;97094.25;;;7.33;100.00
11621;BME280;5866;49.094;11.900;2023-02-20T02:28:53;97102.31;;;7.32;100.00
11621;BME280;5866;49.094;11.900;2023-02-20T02:31:49;97096.06;;;7.10;100.00
11621;BME280;5866;49.094;11.900;2023-02-20T02:34:54;97092.25;;;7.26;100.00
11621;BME280;5866;49.094;11.900;2023-02-20T02:37:32;97089.59;;;7.37;100.00
11621;BME280;5866;49.094;11.900;2023-02-20T02:40:03;97077.78;;;7.63;100.00
11621;BME280;5866;49.094;11.900;2023-02-20T02:42:41;97075.78;;;7.44;100.00
11621;BME280;5866;49.094;11.900;2023-02-20T02:45:15;97074.72;;;7.36;100.00
11621;BME280;5866;49.094;11.900;2023-02-20T02:47:47;97082.31;;;7.18;100.00
11621;BME280;5866;49.094;11.900;2023-02-20T02:50:20;97080.03;;;7.13;100.00
11621;BME280;5866;49.094;11.900;2023-02-20T02:52:51;97064.66;;;7.30;100.00
11621;BME280;5866;49.094;11.900;2023-02-20T02:55:22;97065.84;;;7.26;100.00
11621;BME280;5866;49.094;11.900;2023-02-20T02:57:49;97059.63;;;7.04;100.00
11621;BME280;5866;49.094;11.900;2023-02-20T03:00:20;97062.00;;;7.18;100.00
11621;BME280;5866;49.094;11.900;2023-02-20T03:02:54;97062.28;;;7.15;100.00
11621;BME280;5866;49.094;11.900;2023-02-20T03:05:26;97075.94;;;6.98;100.00
11621;BME280;5866;49.094;11.900;2023-02-20T03:08:11;97049.06;;;6.93;100.00
11621;BME280;5866;49.094;11.900;2023-02-20T03:10:59;97064.78;;;7.06;100.00
11621;BME280;5866;49.094;11.900;2023-02-20T03:13:29;97067.09;;;6.99;100.00
11621;BME280;5866;49.094;11.900;2023-02-20T03:16:19;97073.06;;;6.90;100.00
11621;BME280;5866;49.094;11.900;2023-02-20T03:18:49;97066.59;;;6.94;100.00
11621;BME280;5866;49.094;11.900;2023-02-20T03:21:20;97060.81;;;7.34;100.00
11621;BME280;5866;49.094;11.900;2023-02-20T03:23:54;97054.31;;;7.49;100.00
11621;BME280;5866;49.094;11.900;2023-02-20T03:26:29;97057.44;;;7.43;100.00
11621;BME280;5866;49.094;11.900;2023-02-20T03:29:02;97056.47;;;7.44;100.00
11621;BME280;5866;49.094;11.900;2023-02-20T03:31:34;97065.13;;;7.12;100.00
11621;BME280;5866;49.094;11.900;2023-02-20T03:34:07;97063.72;;;7.19;100.00
11621;BME280;5866;49.094;11.900;2023-02-20T03:36:58;97065.03;;;7.03;100.00
11621;BME280;5866;49.094;11.900;2023-02-20T03:39:50;97066.81;;;6.80;100.00
11621;BME280;5866;49.094;11.900;2023-02-20T03:42:39;97063.94;;;7.16;100.00
11621;BME280;5866;49.094;11.900;2023-02-20T03:45:27;97066.13;;;7.22;100.00
11621;BME280;5866;49.094;11.900;2023-02-20T03:48:00;97067.50;;;7.38;100.00
11621;BME280;5866;49.094;11.900;2023-02-20T03:50:29;97054.41;;;7.58;100.00
11621;BME280;5866;49.094;11.900;2023-02-20T03:53:14;97057.44;;;7.32;100.00
11621;BME280;5866;49.094;11.900;2023-02-20T03:55:44;97056.72;;;7.52;100.00
11621;BME280;5866;49.094;11.900;2023-02-20T03:58:15;97063.94;;;7.39;100.00
11621;BME280;5866;49.094;11.900;2023-02-20T04:00:47;97059.97;;;7.87;100.00
11621;BME280;5866;49.094;11.900;2023-02-20T04:03:19;97060.03;;;7.65;100.00
11621;BME280;5866;49.094;11.900;2023-02-20T04:05:49;97059.31;;;7.63;100.00
11621;BME280;5866;49.094;11.900;2023-02-20T04:08:21;97058.38;;;7.64;100.00
11621;BME280;5866;49.094;11.900;2023-02-20T04:10:54;97050.31;;;7.54;100.00
11621;BME280;5866;49.094;11.900;2023-02-20T04:13:24;97052.00;;;7.98;100.00
11621;BME280;5866;49.094;11.900;2023-02-20T04:15:53;97049.66;;;7.84;100.00
11621;BME280;5866;49.094;11.900;2023-02-20T04:18:22;97058.91;;;7.89;100.00
11621;BME280;5866;49.094;11.900;2023-02-20T04:20:53;97059.00;;;8.20;100.00
11621;BME280;5866;49.094;11.900;2023-02-20T04:23:24;97055.69;;;8.38;100.00
11621;BME280;5866;49.094;11.900;2023-02-20T04:25:56;97059.19;;;8.07;100.00
11621;BME280;5866;49.094;11.900;2023-02-20T04:28:26;97061.44;;;8.43;100.00
11621;BME280;5866;49.094;11.900;2023-02-20T04:30:54;97058.97;;;7.99;100.00
11621;BME280;5866;49.094;11.900;2023-02-20T04:33:22;97062.34;;;7.90;100.00
11621;BME280;5866;49.094;11.900;2023-02-20T04:35:50;97062.53;;;8.09;100.00
11621;BME280;5866;49.094;11.900;2023-02-20T04:38:19;97069.03;;;8.05;100.00
11621;BME280;5866;49.094;11.900;2023-02-20T04:40:47;97073.22;;;7.76;100.00
11621;BME280;5866;49.094;11.900;2023-02-20T04:43:17;97081.22;;;7.85;100.00
11621;BME280;5866;49.094;11.900;2023-02-20T04:45:44;97071.44;;;7.65;100.00
11621;BME280;5866;49.094;11.900;2023-02-20T04:48:12;97065.78;;;7.70;100.00
11621;BME280;5866;49.094;11.900;2023-02-20T04:50:39;97073.50;;;7.51;100.00
11621;BME280;5866;49.094;11.900;2023-02-20T04:53:07;97079.31;;;7.22;100.00
11621;BME280;5866;49.094;11.900;2023-02-20T04:55:34;97078.09;;;7.15;100.00
11621;BME280;5866;49.094;11.900;2023-02-20T04:58:02;97079.56;;;6.97;100.00
11621;BME280;5866;49.094;11.900;2023-02-20T05:00:31;97075.69;;;7.23;100.00
11621;BME280;5866;49.094;11.900;2023-02-20T05:02:58;97072.25;;;7.12;100.00
11621;BME280;5866;49.094;11.900;2023-02-20T05:05:27;97066.13;;;7.11;100.00
11621;BME280;5866;49.094;11.900;2023-02-20T05:07:57;97069.94;;;7.30;100.00
11621;BME280;5866;49.094;11.900;2023-02-20T05:10:26;97064.78;;;7.39;100.00
11621;BME280;5866;49.094;11.900;2023-02-20T05:12:55;97063.09;;;7.38;100.00
11621;BME280;5866;49.094;11.900;2023-02-20T05:15:24;97070.19;;;7.04;100.00
11621;BME280;5866;49.094;11.900;2023-02-20T05:17:53;97079.41;;;7.43;100.00
11621;BME280;5866;49.094;11.900;2023-02-20T05:20:21;97078.91;;;7.27;100.00
11621;BME280;5866;49.094;11.900;2023-02-20T05:23:09;97096.19;;;6.98;100.00
11621;BME280;5866;49.094;11.900;2023-02-20T05:25:36;97086.00;;;7.04;100.00
11621;BME280;5866;49.094;11.900;2023-02-20T05:28:03;97088.88;;;7.12;100.00
11621;BME280;5866;49.094;11.900;2023-02-20T05:30:31;97105.81;;;7.32;100.00
11621;BME280;5866;49.094;11.900;2023-02-20T05:33:00;97101.59;;;7.07;100.00
11621;BME280;5866;49.094;11.900;2023-02-20T05:35:27;97093.44;;;7.10;100.00
11621;BME280;5866;49.094;11.900;2023-02-20T05:37:55;97097.78;;;7.11;100.00
11621;BME280;5866;49.094;11.900;2023-02-20T05:40:22;97088.41;;;7.07;100.00
11621;BME280;5866;49.094;11.900;2023-02-20T05:42:50;97087.22;;;7.00;100.00
11621;BME280;5866;49.094;11.900;2023-02-20T05:45:17;97103.53;;;7.28;100.00
11621;BME280;5866;49.094;11.900;2023-02-20T05:47:45;97086.00;;;7.04;100.00
11621;BME280;5866;49.094;11.900;2023-02-20T05:50:14;97089.13;;;7.09;100.00
11621;BME280;5866;49.094;11.900;2023-02-20T05:52:41;97098.25;;;6.94;100.00
11621;BME280;5866;49.094;11.900;2023-02-20T05:55:10;97092.59;;;6.88;100.00
11621;BME280;5866;49.094;11.900;2023-02-20T05:57:37;97101.72;;;7.17;100.00
11621;BME280;5866;49.094;11.900;2023-02-20T06:00:06;97098.47;;;7.02;100.00
11621;BME280;5866;49.094;11.900;2023-02-20T06:02:33;97092.25;;;7.14;100.00
11621;BME280;5866;49.094;11.900;2023-02-20T06:05:01;97097.88;;;6.99;100.00
11621;BME280;5866;49.094;11.900;2023-02-20T06:07:30;97100.16;;;6.92;100.00
11621;BME280;5866;49.094;11.900;2023-02-20T06:09:57;97098.00;;;7.31;100.00
11621;BME280;5866;49.094;11.900;2023-02-20T06:12:25;97101.34;;;7.10;100.00
11621;BME280;5866;49.094;11.900;2023-02-20T06:14:52;97111.31;;;6.85;100.00
11621;BME280;5866;49.094;11.900;2023-02-20T06:17:20;97108.28;;;6.89;100.00
11621;BME280;5866;49.094;11.900;2023-02-20T06:19:48;97111.41;;;7.16;100.00
11621;BME280;5866;49.094;11.900;2023-02-20T06:22:16;97115.25;;;7.12;100.00
11621;BME280;5866;49.094;11.900;2023-02-20T06:24:46;97115.94;;;6.81;100.00
11621;BME280;5866;49.094;11.900;2023-02-20T06:27:14;97123.88;;;6.92;100.00
11621;BME280;5866;49.094;11.900;2023-02-20T06:29:42;97133.56;;;6.81;100.00
11621;BME280;5866;49.094;11.900;2023-02-20T06:32:10;97131.06;;;6.90;100.00
11621;BME280;5866;49.094;11.900;2023-02-20T06:34:38;97138.56;;;6.62;100.00
11621;BME280;5866;49.094;11.900;2023-02-20T06:37:05;97135.75;;;6.87;100.00
11621;BME280;5866;49.094;11.900;2023-02-20T06:39:33;97134.25;;;6.61;100.00
11621;BME280;5866;49.094;11.900;2023-02-20T06:42:02;97128.13;;;6.60;100.00
11621;BME280;5866;49.094;11.900;2023-02-20T06:44:29;97133.94;;;6.76;100.00
11621;BME280;5866;49.094;11.900;2023-02-20T06:46:58;97139.72;;;6.92;100.00
11621;BME280;5866;49.094;11.900;2023-02-20T06:49:26;97136.56;;;6.87;100.00
11621;BME280;5866;49.094;11.900;2023-02-20T06:51:53;97140.38;;;6.61;100.00
11621;BME280;5866;49.094;11.900;2023-02-20T06:54:21;97146.63;;;6.71;100.00
11621;BME280;5866;49.094;11.900;2023-02-20T06:56:49;97141.13;;;6.74;100.00
11621;BME280;5866;49.094;11.900;2023-02-20T06:59:19;97130.75;;;6.60;100.00
11621;BME280;5866;49.094;11.900;2023-02-20T07:01:46;97132.19;;;6.64;100.00
11621;BME280;5866;49.094;11.900;2023-02-20T07:04:15;97141.13;;;6.74;100.00
11621;BME280;5866;49.094;11.900;2023-02-20T07:06:43;97126.03;;;6.76;100.00
11621;BME280;5866;49.094;11.900;2023-02-20T07:09:12;97127.13;;;6.85;100.00
11621;BME280;5866;49.094;11.900;2023-02-20T07:11:40;97126.75;;;6.78;100.00
11621;BME280;5866;49.094;11.900;2023-02-20T07:14:08;97112.13;;;6.85;100.00
11621;BME280;5866;49.094;11.900;2023-02-20T07:16:37;97129.03;;;6.83;100.00
11621;BME280;5866;49.094;11.900;2023-02-20T07:19:05;97131.34;;;7.09;100.00
11621;BME280;5866;49.094;11.900;2023-02-20T07:21:32;97122.47;;;7.10;100.00
11621;BME280;5866;49.094;11.900;2023-02-20T07:24:00;97126.28;;;6.84;100.00
11621;BME280;5866;49.094;11.900;2023-02-20T07:26:28;97125.47;;;7.28;100.00
11621;BME280;5866;49.094;11.900;2023-02-20T07:28:57;97117.75;;;7.58;100.00
11621;BME280;5866;49.094;11.900;2023-02-20T07:31:26;97117.91;;;7.35;100.00
11621;BME280;5866;49.094;11.900;2023-02-20T07:33:55;97104.72;;;7.35;100.00
11621;BME280;5866;49.094;11.900;2023-02-20T07:36:23;97105.19;;;7.51;100.00
11621;BME280;5866;49.094;11.900;2023-02-20T07:38:55;97116.94;;;7.36;100.00
11621;BME280;5866;49.094;11.900;2023-02-20T07:41:24;97117.66;;;7.49;100.00
11621;BME280;5866;49.094;11.900;2023-02-20T07:43:52;97123.69;;;7.29;100.00
11621;BME280;5866;49.094;11.900;2023-02-20T07:46:19;97115.63;;;7.52;100.00
11621;BME280;5866;49.094;11.900;2023-02-20T07:48:47;97112.84;;;7.65;100.00
11621;BME280;5866;49.094;11.900;2023-02-20T07:51:16;97122.81;;;7.50;100.00
11621;BME280;5866;49.094;11.900;2023-02-20T07:53:46;97110.53;;;7.71;100.00
11621;BME280;5866;49.094;11.900;2023-02-20T07:56:14;97121.75;;;7.53;100.00
11621;BME280;5866;49.094;11.900;2023-02-20T07:58:41;97115.03;;;8.02;100.00
11621;BME280;5866;49.094;11.900;2023-02-20T08:01:09;97122.47;;;7.33;100.00
11621;BME280;5866;49.094;11.900;2023-02-20T08:03:36;97100.34;;;7.67;100.00
11621;BME280;5866;49.094;11.900;2023-02-20T08:06:04;97094.19;;;7.88;100.00
11621;BME280;5866;49.094;11.900;2023-02-20T08:08:33;97096.72;;;8.22;100.00
11621;BME280;5866;49.094;11.900;2023-02-20T08:11:01;97109.88;;;8.01;100.00
11621;BME280;5866;49.094;11.900;2023-02-20T08:13:35;97109.75;;;7.60;100.00
11621;BME280;5866;49.094;11.900;2023-02-20T08:16:03;97111.66;;;7.36;100.00
11621;BME280;5866;49.094;11.900;2023-02-20T08:18:31;97111.66;;;7.58;100.00
11621;BME280;5866;49.094;11.900;2023-02-20T08:20:58;97094.34;;;7.76;100.00
11621;BME280;5866;49.094;11.900;2023-02-20T08:23:26;97107.94;;;7.27;100.00
11621;BME280;5866;49.094;11.900;2023-02-20T08:25:54;97124.41;;;7.31;100.00
11621;BME280;5866;49.094;11.900;2023-02-20T08:28:22;97119.31;;;7.72;100.00
11621;BME280;5866;49.094;11.900;2023-02-20T08:30:50;97120.50;;;7.79;100.00
11621;BME280;5866;49.094;11.900;2023-02-20T08:33:17;97103.91;;;7.88;100.00
11621;BME280;5866;49.094;11.900;2023-02-20T08:35:45;97102.81;;;7.90;100.00
11621;BME280;5866;49.094;11.900;2023-02-20T08:38:23;97088.91;;;7.88;100.00
11621;BME280;5866;49.094;11.900;2023-02-20T08:40:51;97088.81;;;8.11;100.00
11621;BME280;5866;49.094;11.900;2023-02-20T08:43:20;97078.19;;;8.33;100.00
11621;BME280;5866;49.094;11.900;2023-02-20T08:45:48;97063.69;;;8.27;100.00
11621;BME280;5866;49.094;11.900;2023-02-20T08:48:15;97063.25;;;8.11;100.00
11621;BME280;5866;49.094;11.900;2023-02-20T08:50:43;97064.22;;;8.62;100.00
11621;BME280;5866;49.094;11.900;2023-02-20T08:53:12;97055.19;;;8.86;100.00
11621;BME280;5866;49.094;11.900;2023-02-20T08:55:40;97067.53;;;9.06;100.00
11621;BME280;5866;49.094;11.900;2023-02-20T08:58:07;97050.94;;;8.21;100.00
11621;BME280;5866;49.094;11.900;2023-02-20T09:00:36;97056.16;;;8.64;100.00
11621;BME280;5866;49.094;11.900;2023-02-20T09:03:04;97061.34;;;8.96;100.00
11621;BME280;5866;49.094;11.900;2023-02-20T09:05:33;97021.75;;;9.24;100.00
11621;BME280;5866;49.094;11.900;2023-02-20T09:08:04;97034.19;;;9.33;100.00
11621;BME280;5866;49.094;11.900;2023-02-20T09:10:32;97029.03;;;8.92;100.00
11621;BME280;5866;49.094;11.900;2023-02-20T09:13:00;97013.00;;;8.63;100.00
11621;BME280;5866;49.094;11.900;2023-02-20T09:15:27;97021.91;;;8.62;100.00
11621;BME280;5866;49.094;11.900;2023-02-20T09:17:58;97021.59;;;8.56;100.00
11621;BME280;5866;49.094;11.900;2023-02-20T09:20:25;97012.59;;;8.38;100.00
11621;BME280;5866;49.094;11.900;2023-02-20T09:22:56;97021.75;;;8.85;100.00
11621;BME280;5866;49.094;11.900;2023-02-20T09:25:24;97015.22;;;9.28;100.00
11621;BME280;5866;49.094;11.900;2023-02-20T09:27:52;97011.03;;;9.26;100.00
11621;BME280;5866;49.094;11.900;2023-02-20T09:30:20;97009.66;;;9.31;100.00
11621;BME280;5866;49.094;11.900;2023-02-20T09:32:48;97020.13;;;9.33;100.00
11621;BME280;5866;49.094;11.900;2023-02-20T09:35:18;97022.97;;;8.50;100.00
11621;BME280;5866;49.094;11.900;2023-02-20T09:37:46;97024.44;;;8.43;100.00
11621;BME280;5866;49.094;11.900;2023-02-20T09:40:16;97003.81;;;8.67;100.00
11621;BME280;5866;49.094;11.900;2023-02-20T09:42:58;97029.84;;;8.93;100.00
11621;BME280;5866;49.094;11.900;2023-02-20T09:45:31;97021.56;;;9.07;100.00
11621;BME280;5866;49.094;11.900;2023-02-20T09:48:07;97037.22;;;9.97;100.00
11621;BME280;5866;49.094;11.900;2023-02-20T09:50:43;97018.41;;;9.81;100.00
11621;BME280;5866;49.094;11.900;2023-02-20T09:53:18;97014.53;;;10.23;97.66
11621;BME280;5866;49.094;11.900;2023-02-20T09:55:48;97016.19;;;10.53;95.71
11621;BME280;5866;49.094;11.900;2023-02-20T09:58:20;97012.22;;;10.67;93.17
11621;BME280;5866;49.094;11.900;2023-02-20T10:00:49;97013.81;;;10.96;90.97
11621;BME280;5866;49.094;11.900;2023-02-20T10:03:25;97008.25;;;10.90;90.87
11621;BME280;5866;49.094;11.900;2023-02-20T10:05:55;96996.19;;;11.05;88.68
11621;BME280;5866;49.094;11.900;2023-02-20T10:08:23;96988.22;;;11.05;86.16
11621;BME280;5866;49.094;11.900;2023-02-20T10:10:51;97007.94;;;11.02;90.06
11621;BME280;5866;49.094;11.900;2023-02-20T10:13:41;96990.09;;;10.95;86.39
11621;BME280;5866;49.094;11.900;2023-02-20T10:16:21;96989.50;;;11.01;85.87
11621;BME280;5866;49.094;11.900;2023-02-20T10:19:01;96996.38;;;10.28;88.56
11621;BME280;5866;49.094;11.900;2023-02-20T10:21:45;96992.28;;;10.63;87.74
11621;BME280;5866;49.094;11.900;2023-02-20T10:24:23;96991.75;;;10.02;93.90
11621;BME280;5866;49.094;11.900;2023-02-20T10:26:53;97010.88;;;10.44;93.52
11621;BME280;5866;49.094;11.900;2023-02-20T10:29:25;97002.94;;;10.90;87.68
11621;BME280;5866;49.094;11.900;2023-02-20T10:31:59;96998.44;;;10.63;91.25
11621;BME280;5866;49.094;11.900;2023-02-20T10:34:29;96974.91;;;10.12;93.43
11621;BME280;5866;49.094;11.900;2023-02-20T10:37:07;96987.88;;;10.81;93.19
11621;BME280;5866;49.094;11.900;2023-02-20T10:39:38;96982.63;;;11.62;85.63
11621;BME280;5866;49.094;11.900;2023-02-20T10:42:11;96967.59;;;11.88;81.27
11621;BME280;5866;49.094;11.900;2023-02-20T10:44:44;96969.28;;;11.45;84.02
11621;BME280;5866;49.094;11.900;2023-02-20T10:47:21;96956.88;;;11.36;85.89
11621;BME280;5866;49.094;11.900;2023-02-20T10:49:56;96949.41;;;12.37;79.13
11621;BME280;5866;49.094;11.900;2023-02-20T10:52:30;96919.34;;;11.48;78.79
11621;BME280;5866;49.094;11.900;2023-02-20T10:55:05;96948.06;;;11.62;79.62
11621;BME280;5866;49.094;11.900;2023-02-20T10:57:37;96941.72;;;11.90;76.01
11621;BME280;5866;49.094;11.900;2023-02-20T11:00:09;96937.69;;;12.30;75.03
11621;BME280;5866;49.094;11.900;2023-02-20T11:02:44;96940.06;;;12.33;76.19
11621;BME280;5866;49.094;11.900;2023-02-20T11:05:16;96930.78;;;12.62;75.56
11621;BME280;5866;49.094;11.900;2023-02-20T11:07:47;96941.25;;;13.15;73.03
11621;BME280;5866;49.094;11.900;2023-02-20T11:10:15;96939.44;;;11.95;74.08
11621;BME280;5866;49.094;11.900;2023-02-20T11:12:45;96936.69;;;11.25;81.25
11621;BME280;5866;49.094;11.900;2023-02-20T11:15:17;96922.28;;;11.72;83.64
11621;BME280;5866;49.094;11.900;2023-02-20T11:17:48;96914.94;;;12.87;72.47
11621;BME280;5866;49.094;11.900;2023-02-20T11:20:36;96922.38;;;12.75;72.75
11621;BME280;5866;49.094;11.900;2023-02-20T11:23:08;96911.63;;;13.26;68.64
11621;BME280;5866;49.094;11.900;2023-02-20T11:25:37;96915.16;;;13.35;70.27
11621;BME280;5866;49.094;11.900;2023-02-20T11:28:10;96910.75;;;14.16;68.83
11621;BME280;5866;49.094;11.900;2023-02-20T11:30:40;96901.97;;;14.94;63.78
11621;BME280;5866;49.094;11.900;2023-02-20T11:33:11;96903.56;;;15.11;61.91
11621;BME280;5866;49.094;11.900;2023-02-20T11:35:40;96889.84;;;14.76;61.44
11621;BME280;5866;49.094;11.900;2023-02-20T11:38:23;96902.03;;;14.62;59.86
11621;BME280;5866;49.094;11.900;2023-02-20T11:41:21;96897.41;;;14.08;62.78
11621;BME280;5866;49.094;11.900;2023-02-20T11:44:06;96888.75;;;14.22;60.46
11621;BME280;5866;49.094;11.900;2023-02-20T11:46:34;96890.44;;;14.94;58.27
11621;BME280;5866;49.094;11.900;2023-02-20T11:49:03;96881.09;;;14.90;59.31
11621;BME280;5866;49.094;11.900;2023-02-20T11:51:36;96893.56;;;13.78;60.62
11621;BME280;5866;49.094;11.900;2023-02-20T11:54:08;96874.88;;;13.54;60.78
11621;BME280;5866;49.094;11.900;2023-02-20T11:56:36;96872.41;;;13.85;61.25
11621;BME280;5866;49.094;11.900;2023-02-20T11:59:25;96879.53;;;13.52;61.34
11621;BME280;5866;49.094;11.900;2023-02-20T12:01:53;96870.47;;;13.13;62.43
11621;BME280;5866;49.094;11.900;2023-02-20T12:04:26;96868.09;;;12.68;64.76
11621;BME280;5866;49.094;11.900;2023-02-20T12:06:54;96867.22;;;12.34;68.73
11621;BME280;5866;49.094;11.900;2023-02-20T12:09:24;96864.22;;;11.15;76.41
11621;BME280;5866;49.094;11.900;2023-02-20T12:11:53;96869.19;;;11.45;78.98
11621;BME280;5866;49.094;11.900;2023-02-20T12:14:22;96859.34;;;11.73;77.18
11621;BME280;5866;49.094;11.900;2023-02-20T12:17:01;96847.41;;;12.03;74.99
11621;BME280;5866;49.094;11.900;2023-02-20T12:19:39;96833.63;;;12.25;72.09
11621;BME280;5866;49.094;11.900;2023-02-20T12:22:17;96839.94;;;12.32;70.58
11621;BME280;5866;49.094;11.900;2023-02-20T12:24:58;96824.09;;;12.48;69.18
11621;BME280;5866;49.094;11.900;2023-02-20T12:27:56;96830.34;;;13.14;67.52
11621;BME280;5866;49.094;11.900;2023-02-20T12:30:34;96813.44;;;13.80;63.08
11621;BME280;5866;49.094;11.900;2023-02-20T12:33:17;96811.38;;;14.30;60.17
11621;BME280;5866;49.094;11.900;2023-02-20T12:35:55;96806.59;;;15.56;57.46
11621;BME280;5866;49.094;11.900;2023-02-20T12:38:34;96810.75;;;15.96;55.68
11621;BME280;5866;49.094;11.900;2023-02-20T12:41:20;96800.25;;;15.95;55.04
11621;BME280;5866;49.094;11.900;2023-02-20T12:43:58;96801.75;;;16.12;54.44
11621;BME280;5866;49.094;11.900;2023-02-20T12:46:45;96805.28;;;15.75;53.72
11621;BME280;5866;49.094;11.900;2023-02-20T12:49:32;96791.88;;;15.60;55.01
11621;BME280;5866;49.094;11.900;2023-02-20T12:52:16;96796.75;;;16.09;55.03
11621;BME280;5866;49.094;11.900;2023-02-20T12:54:54;96789.16;;;16.35;52.51
11621;BME280;5866;49.094;11.900;2023-02-20T12:57:37;96780.84;;;15.33;53.13
11621;BME280;5866;49.094;11.900;2023-02-20T13:00:21;96781.78;;;13.44;60.54
11621;BME280;5866;49.094;11.900;2023-02-20T13:02:54;96779.09;;;13.61;59.98
11621;BME280;5866;49.094;11.900;2023-02-20T13:05:25;96744.44;;;13.69;59.22
11621;BME280;5866;49.094;11.900;2023-02-20T13:07:54;96760.59;;;13.51;60.52
11621;BME280;5866;49.094;11.900;2023-02-20T13:10:24;96758.56;;;13.93;62.13
11621;BME280;5866;49.094;11.900;2023-02-20T13:12:54;96744.91;;;13.88;58.41
11621;BME280;5866;49.094;11.900;2023-02-20T13:15:32;96747.78;;;14.42;57.01
11621;BME280;5866;49.094;11.900;2023-02-20T13:18:07;96740.91;;;13.92;57.63
11621;BME280;5866;49.094;11.900;2023-02-20T13:20:45;96738.22;;;14.55;58.29
11621;BME280;5866;49.094;11.900;2023-02-20T13:23:28;96736.25;;;14.49;56.64
11621;BME280;5866;49.094;11.900;2023-02-20T13:25:56;96740.44;;;13.65;56.92